createdAt,value
2019-06-26T00:00:41.853Z,25.9
2019-06-26T00:01:41.905Z,25.9
2019-06-26T00:02:41.952Z,25.9
2019-06-26T00:03:42.001Z,25.8
2019-06-26T00:04:42.082Z,25.7
2019-06-26T00:05:42.283Z,25.7
2019-06-26T00:06:42.316Z,25.7
2019-06-26T00:07:42.299Z,25.7
2019-06-26T00:08:42.348Z,25.6
2019-06-26T00:09:42.455Z,25.6
2019-06-26T00:10:42.481Z,25.6
2019-06-26T00:11:42.620Z,25.7
2019-06-26T00:12:42.498Z,25.7
2019-06-26T00:13:42.612Z,25.6
2019-06-26T00:14:42.641Z,25.6
2019-06-26T00:15:42.731Z,25.7
2019-06-26T00:16:42.792Z,25.8
2019-06-26T00:17:43.015Z,25.8
2019-06-26T00:18:42.873Z,25.6
2019-06-26T00:19:43.012Z,25.5
2019-06-26T00:20:43.051Z,25.5
2019-06-26T00:21:43.385Z,25.4
2019-06-26T00:22:43.143Z,25.4
2019-06-26T00:23:43.192Z,25.4
2019-06-26T00:24:43.782Z,25.4
2019-06-26T00:25:43.338Z,25.5
2019-06-26T00:26:43.366Z,25.5
2019-06-26T00:27:43.687Z,25.4
2019-06-26T00:30:49.150Z,25.3
2019-06-26T00:31:49.183Z,25.3
2019-06-26T00:32:49.225Z,25.3
2019-06-26T00:33:49.394Z,25.3
2019-06-26T00:34:49.346Z,25.2
2019-06-26T00:35:49.478Z,25.3
2019-06-26T00:36:49.536Z,25.3
2019-06-26T00:37:49.510Z,25.3
2019-06-26T00:38:49.630Z,25.3
2019-06-26T00:39:49.628Z,25.3
2019-06-26T00:40:49.710Z,25.3
2019-06-26T00:41:49.816Z,25.3
2019-06-26T00:42:49.927Z,25.2
2019-06-26T00:43:49.943Z,25.2
2019-06-26T00:44:49.873Z,25.2
2019-06-26T00:45:49.959Z,25.2
2019-06-26T00:46:50.057Z,25.2
2019-06-26T00:47:50.098Z,25.2
2019-06-26T00:48:50.106Z,25.2
2019-06-26T00:49:50.215Z,25.1
2019-06-26T00:50:50.208Z,25.1
2019-06-26T00:51:50.301Z,25.1
2019-06-26T00:52:50.417Z,25.1
2019-06-26T00:53:50.421Z,25.1
2019-06-26T00:54:50.432Z,25
2019-06-26T00:55:50.556Z,25
2019-06-26T00:56:50.575Z,25
2019-06-26T00:57:50.728Z,25
2019-06-26T00:58:50.747Z,25
2019-06-26T00:59:50.779Z,24.9
2019-06-26T01:00:50.830Z,25
2019-06-26T01:01:50.849Z,25.1
2019-06-26T01:02:50.916Z,25.1
2019-06-26T01:03:51.020Z,25.1
2019-06-26T01:04:51.091Z,25.2
2019-06-26T01:05:51.119Z,25.2
2019-06-26T01:06:51.160Z,25.1
2019-06-26T01:07:51.595Z,25
2019-06-26T01:08:51.326Z,25
2019-06-26T01:09:51.531Z,25
2019-06-26T01:10:51.716Z,25
2019-06-26T01:11:51.443Z,24.9
2019-06-26T01:12:51.592Z,25
2019-06-26T01:13:57.892Z,24.9
2019-06-26T01:14:51.654Z,24.9
2019-06-26T01:15:51.738Z,25
2019-06-26T01:16:51.700Z,24.9
2019-06-26T01:17:51.834Z,24.8
2019-06-26T01:18:51.859Z,24.9
2019-06-26T01:19:51.881Z,24.9
2019-06-26T01:20:51.965Z,24.8
2019-06-26T01:21:52.058Z,24.8
2019-06-26T01:22:52.151Z,24.8
2019-06-26T01:23:52.234Z,24.9
2019-06-26T01:24:52.275Z,25
2019-06-26T01:25:52.361Z,25
2019-06-26T01:26:52.361Z,25.1
2019-06-26T01:27:52.789Z,25
2019-06-26T01:28:52.464Z,25.1
2019-06-26T01:29:52.507Z,25.1
2019-06-26T01:30:52.651Z,25
2019-06-26T01:31:52.670Z,24.9
2019-06-26T01:32:53.160Z,24.9
2019-06-26T01:33:52.713Z,24.8
2019-06-26T01:34:52.784Z,24.8
2019-06-26T01:35:52.930Z,24.9
2019-06-26T01:36:52.920Z,24.9
2019-06-26T01:37:53.030Z,24.9
2019-06-26T01:38:53.037Z,24.8
2019-06-26T01:39:53.119Z,24.8
2019-06-26T01:40:53.164Z,24.8
2019-06-26T01:41:53.229Z,24.7
2019-06-26T01:42:53.305Z,24.6
2019-06-26T01:43:53.357Z,24.4
2019-06-26T01:44:53.448Z,24.4
2019-06-26T01:45:53.460Z,24.5
2019-06-26T01:46:53.475Z,24.6
2019-06-26T01:47:53.605Z,24.6
2019-06-26T01:48:53.636Z,24.6
2019-06-26T01:49:53.696Z,24.5
2019-06-26T01:50:53.735Z,24.5
2019-06-26T01:51:53.776Z,24.4
2019-06-26T01:52:53.825Z,24.3
2019-06-26T01:53:53.861Z,24.4
2019-06-26T01:54:54.001Z,24.4
2019-06-26T01:55:54.071Z,24.4
2019-06-26T01:56:54.039Z,24.4
2019-06-26T01:57:54.132Z,24.5
2019-06-26T01:58:54.218Z,24.6
2019-06-26T01:59:54.221Z,24.6
2019-06-26T02:00:54.332Z,24.4
2019-06-26T02:01:54.313Z,24.4
2019-06-26T02:02:54.393Z,24.3
2019-06-26T02:03:54.477Z,24.3
2019-06-26T02:04:54.549Z,24.2
2019-06-26T02:05:54.683Z,24.1
2019-06-26T02:06:54.686Z,24.1
2019-06-26T02:07:54.794Z,24
2019-06-26T02:08:54.831Z,23.9
2019-06-26T02:09:54.844Z,24
2019-06-26T02:10:54.915Z,24
2019-06-26T02:11:54.951Z,24.1
2019-06-26T02:12:55.007Z,24.1
2019-06-26T02:13:55.038Z,24
2019-06-26T02:14:55.123Z,24
2019-06-26T02:15:55.132Z,24
2019-06-26T02:16:55.266Z,23.9
2019-06-26T02:17:55.831Z,24
2019-06-26T02:18:55.332Z,23.9
2019-06-26T02:19:55.326Z,23.9
2019-06-26T02:20:55.680Z,23.9
2019-06-26T02:21:55.875Z,24
2019-06-26T02:22:55.459Z,24
2019-06-26T02:23:55.546Z,24.1
2019-06-26T02:24:55.621Z,24.1
2019-06-26T02:25:55.666Z,24.1
2019-06-26T02:26:57.706Z,24.1
2019-06-26T02:27:55.872Z,24.1
2019-06-26T02:28:55.867Z,24.1
2019-06-26T02:29:55.893Z,24
2019-06-26T02:30:55.944Z,24
2019-06-26T02:31:56.012Z,24.1
2019-06-26T02:32:56.125Z,24.1
2019-06-26T02:33:56.182Z,24
2019-06-26T02:34:56.230Z,24
2019-06-26T02:35:56.330Z,23.9
2019-06-26T02:36:56.390Z,23.8
2019-06-26T02:37:58.439Z,23.8
2019-06-26T02:38:56.487Z,23.8
2019-06-26T02:39:56.581Z,23.8
2019-06-26T02:40:56.636Z,23.8
2019-06-26T02:41:56.654Z,23.7
2019-06-26T02:42:56.685Z,23.7
2019-06-26T02:43:56.792Z,23.7
2019-06-26T02:44:56.831Z,23.8
2019-06-26T02:45:57.696Z,23.7
2019-06-26T02:47:13.571Z,23.6
2019-06-26T02:47:57.291Z,23.7
2019-06-26T02:48:57.012Z,23.7
2019-06-26T02:49:57.764Z,23.6
2019-06-26T02:50:57.891Z,23.6
2019-06-26T02:51:57.897Z,23.6
2019-06-26T02:52:57.452Z,23.6
2019-06-26T02:53:57.468Z,23.6
2019-06-26T02:54:57.331Z,23.7
2019-06-26T02:55:57.451Z,23.8
2019-06-26T02:56:57.541Z,23.7
2019-06-26T02:57:57.804Z,23.7
2019-06-26T02:58:57.649Z,23.7
2019-06-26T02:59:57.812Z,23.6
2019-06-26T03:00:57.945Z,23.5
2019-06-26T03:02:02.156Z,23.5
2019-06-26T03:02:57.930Z,23.6
2019-06-26T03:03:58.166Z,23.6
2019-06-26T03:04:58.411Z,23.6
2019-06-26T03:05:58.665Z,23.6
2019-06-26T03:06:59.220Z,23.5
2019-06-26T03:07:59.599Z,23.6
2019-06-26T03:08:58.221Z,23.6
2019-06-26T03:09:59.151Z,23.5
2019-06-26T03:10:58.518Z,23.5
2019-06-26T03:12:01.793Z,23.6
2019-06-26T03:13:01.188Z,23.6
2019-06-26T03:13:59.844Z,23.6
2019-06-26T03:15:08.620Z,23.6
2019-06-26T03:16:03.789Z,23.5
2019-06-26T03:17:01.676Z,23.5
2019-06-26T03:18:01.190Z,23.4
2019-06-26T03:19:02.038Z,23.4
2019-06-26T03:19:59.220Z,23.4
2019-06-26T03:20:59.422Z,23.4
2019-06-26T03:22:00.286Z,23.5
2019-06-26T03:22:59.022Z,23.4
2019-06-26T03:24:02.447Z,23.5
2019-06-26T03:25:00.798Z,23.6
2019-06-26T03:25:59.805Z,23.6
2019-06-26T03:27:01.038Z,23.7
2019-06-26T03:28:02.830Z,23.7
2019-06-26T03:29:00.420Z,23.7
2019-06-26T03:30:01.206Z,23.7
2019-06-26T03:31:01.494Z,23.7
2019-06-26T03:32:02.050Z,23.7
2019-06-26T03:33:01.274Z,23.8
2019-06-26T03:33:59.831Z,23.8
2019-06-26T03:35:01.286Z,23.7
2019-06-26T03:36:01.911Z,23.6
2019-06-26T03:37:00.902Z,23.7
2019-06-26T03:38:01.340Z,23.7
2019-06-26T03:39:01.346Z,23.7
2019-06-26T03:40:01.614Z,23.6
2019-06-26T03:41:01.698Z,23.7
2019-06-26T03:42:01.062Z,23.7
2019-06-26T03:43:03.040Z,23.7
2019-06-26T03:44:01.115Z,23.7
2019-06-26T03:45:02.089Z,23.8
2019-06-26T03:46:00.801Z,23.7
2019-06-26T03:47:00.718Z,23.6
2019-06-26T03:48:01.637Z,23.6
2019-06-26T03:49:00.886Z,23.6
2019-06-26T03:50:01.112Z,23.5
2019-06-26T03:51:01.128Z,23.4
2019-06-26T03:52:01.093Z,23.5
2019-06-26T03:53:03.141Z,23.6
2019-06-26T03:54:01.345Z,23.6
2019-06-26T03:55:01.485Z,23.7
2019-06-26T03:56:01.589Z,23.7
2019-06-26T03:57:51.168Z,23.7
2019-06-26T03:58:03.299Z,23.5
2019-06-26T03:59:01.424Z,23.4
2019-06-26T04:00:01.427Z,23.4
2019-06-26T04:01:01.294Z,23.3
2019-06-26T04:02:01.231Z,23.2
2019-06-26T04:03:02.373Z,23.4
2019-06-26T04:04:01.816Z,23.4
2019-06-26T04:05:01.831Z,23.3
2019-06-26T04:06:01.529Z,23.2
2019-06-26T04:07:01.541Z,23.1
2019-06-26T04:08:02.192Z,23.1
2019-06-26T04:09:01.860Z,23.1
2019-06-26T04:10:01.713Z,23.1
2019-06-26T04:11:01.807Z,23.1
2019-06-26T04:12:01.849Z,23.1
2019-06-26T04:13:01.951Z,23.2
2019-06-26T04:14:01.880Z,23.2
2019-06-26T04:15:02.035Z,23.2
2019-06-26T04:16:02.003Z,23.1
2019-06-26T04:17:02.217Z,23.2
2019-06-26T04:18:02.237Z,23.2
2019-06-26T04:19:02.206Z,23.1
2019-06-26T04:20:02.232Z,23.2
2019-06-26T04:21:02.377Z,23.2
2019-06-26T04:22:02.382Z,23.2
2019-06-26T04:23:02.459Z,23.3
2019-06-26T04:24:02.483Z,23.3
2019-06-26T04:25:02.507Z,23.3
2019-06-26T04:26:03.708Z,23.3
2019-06-26T04:27:02.660Z,23.2
2019-06-26T04:28:05.506Z,23.2
2019-06-26T04:29:02.727Z,23.3
2019-06-26T04:30:03.068Z,23.3
2019-06-26T04:31:03.104Z,23.3
2019-06-26T04:32:03.880Z,23.3
2019-06-26T04:33:10.414Z,23.2
2019-06-26T04:34:08.047Z,23.2
2019-06-26T04:35:03.041Z,23.3
2019-06-26T04:36:03.162Z,23.4
2019-06-26T04:37:03.207Z,23.4
2019-06-26T04:38:03.275Z,23.4
2019-06-26T04:39:03.360Z,23.5
2019-06-26T04:40:03.471Z,23.4
2019-06-26T04:41:03.435Z,23.4
2019-06-26T04:42:03.549Z,23.5
2019-06-26T04:43:03.562Z,23.6
2019-06-26T04:44:03.609Z,23.6
2019-06-26T04:45:03.694Z,23.5
2019-06-26T04:46:03.776Z,23.5
2019-06-26T04:47:03.839Z,37.2
2019-06-26T04:48:06.972Z,23.5
2019-06-26T04:49:03.930Z,23.6
2019-06-26T04:50:03.926Z,23.7
2019-06-26T04:51:04.074Z,23.8
2019-06-26T04:52:04.084Z,23.7
2019-06-26T04:53:04.159Z,23.7
2019-06-26T04:54:04.244Z,23.7
2019-06-26T04:55:04.225Z,23.8
2019-06-26T04:56:04.366Z,23.6
2019-06-26T04:57:04.399Z,23.7
2019-06-26T04:58:05.348Z,23.6
2019-06-26T04:59:04.578Z,23.7
2019-06-26T05:00:04.570Z,23.6
2019-06-26T05:01:04.637Z,23.6
2019-06-26T05:02:04.729Z,23.6
2019-06-26T05:03:04.833Z,23.7
2019-06-26T05:04:04.809Z,23.6
2019-06-26T05:05:04.889Z,23.6
2019-06-26T05:06:04.945Z,23.7
2019-06-26T05:07:05.031Z,23.7
2019-06-26T05:08:05.411Z,23.7
2019-06-26T05:09:05.129Z,23.7
2019-06-26T05:10:05.190Z,23.8
2019-06-26T05:11:05.254Z,23.8
2019-06-26T05:12:05.367Z,23.9
2019-06-26T05:13:05.380Z,23.9
2019-06-26T05:14:05.512Z,24
2019-06-26T05:15:05.601Z,24.1
2019-06-26T05:16:14.656Z,24.2
2019-06-26T05:17:05.820Z,24.3
2019-06-26T05:18:06.241Z,24.2
2019-06-26T05:19:05.765Z,24.2
2019-06-26T05:20:05.871Z,24.3
2019-06-26T05:21:05.908Z,24.3
2019-06-26T05:22:05.973Z,24.2
2019-06-26T05:23:06.089Z,24.1
2019-06-26T05:24:06.169Z,24.2
2019-06-26T05:25:06.253Z,24.1
2019-06-26T05:26:06.301Z,24.1
2019-06-26T05:27:06.254Z,24.2
2019-06-26T05:28:08.655Z,24.1
2019-06-26T05:29:06.392Z,24.1
2019-06-26T05:30:06.436Z,24.2
2019-06-26T05:31:07.256Z,24.1
2019-06-26T05:32:06.501Z,24.2
2019-06-26T05:33:06.614Z,24.4
2019-06-26T05:34:11.027Z,24.4
2019-06-26T05:35:16.782Z,24.3
2019-06-26T05:36:06.761Z,24.3
2019-06-26T05:37:06.959Z,24.2
2019-06-26T05:38:06.999Z,24.3
2019-06-26T05:39:06.935Z,24.3
2019-06-26T05:40:07.018Z,24.3
2019-06-26T05:41:07.009Z,24.4
2019-06-26T05:42:07.114Z,24.4
2019-06-26T05:43:07.192Z,24.3
2019-06-26T05:44:07.170Z,24.3
2019-06-26T05:45:08.392Z,24.3
2019-06-26T05:46:07.366Z,24.3
2019-06-26T05:47:07.390Z,24.4
2019-06-26T05:48:07.407Z,24.4
2019-06-26T05:49:07.470Z,24.4
2019-06-26T05:50:07.553Z,24.4
2019-06-26T05:51:07.534Z,24.4
2019-06-26T05:52:07.630Z,24.4
2019-06-26T05:53:07.628Z,24.4
2019-06-26T05:54:07.702Z,24.4
2019-06-26T05:55:08.839Z,24.4
2019-06-26T05:56:07.826Z,24.5
2019-06-26T05:57:07.940Z,24.7
2019-06-26T05:58:07.979Z,24.7
2019-06-26T05:59:09.334Z,24.8
2019-06-26T06:00:08.157Z,24.8
2019-06-26T06:01:08.297Z,24.8
2019-06-26T06:02:08.267Z,24.7
2019-06-26T06:03:08.385Z,24.8
2019-06-26T06:04:08.374Z,24.9
2019-06-26T06:05:08.441Z,24.8
2019-06-26T06:06:08.398Z,24.8
2019-06-26T06:07:08.434Z,24.8
2019-06-26T06:08:08.553Z,24.8
2019-06-26T06:09:24.504Z,24.8
2019-06-26T06:10:08.961Z,24.8
2019-06-26T06:11:08.993Z,24.8
2019-06-26T06:12:08.812Z,24.8
2019-06-26T06:13:11.989Z,24.8
2019-06-26T06:14:08.905Z,24.8
2019-06-26T06:15:09.392Z,24.8
2019-06-26T06:16:08.940Z,24.9
2019-06-26T06:17:09.093Z,24.9
2019-06-26T06:18:09.177Z,24.9
2019-06-26T06:19:09.428Z,24.9
2019-06-26T06:20:09.424Z,24.9
2019-06-26T06:21:09.282Z,25
2019-06-26T06:22:09.609Z,24.9
2019-06-26T06:23:09.850Z,24.8
2019-06-26T06:24:09.404Z,24.8
2019-06-26T06:25:09.428Z,24.8
2019-06-26T06:26:09.509Z,24.8
2019-06-26T06:27:09.558Z,24.9
2019-06-26T06:28:09.697Z,25
2019-06-26T06:29:10.726Z,24.9
2019-06-26T06:30:09.673Z,24.8
2019-06-26T06:31:10.064Z,24.9
2019-06-26T06:32:09.883Z,25
2019-06-26T06:33:09.953Z,25
2019-06-26T06:34:09.975Z,25.1
2019-06-26T06:35:09.990Z,25.2
2019-06-26T06:36:10.131Z,25.2
2019-06-26T06:37:11.147Z,25.1
2019-06-26T06:38:10.254Z,25.1
2019-06-26T06:39:10.357Z,25.3
2019-06-26T06:40:11.167Z,25.3
2019-06-26T06:41:10.476Z,25.3
2019-06-26T06:42:10.516Z,25.3
2019-06-26T06:43:10.585Z,25.4
2019-06-26T06:44:10.612Z,25.5
2019-06-26T06:45:10.658Z,25.6
2019-06-26T06:46:10.716Z,25.7
2019-06-26T06:47:10.784Z,25.7
2019-06-26T06:48:11.168Z,25.7
2019-06-26T06:49:10.906Z,25.8
2019-06-26T06:50:12.030Z,25.8
2019-06-26T06:51:11.071Z,25.8
2019-06-26T06:52:11.127Z,25.9
2019-06-26T06:53:11.179Z,25.8
2019-06-26T06:54:11.676Z,25.8
2019-06-26T06:55:12.389Z,25.8
2019-06-26T06:56:11.372Z,25.8
2019-06-26T06:57:11.790Z,26
2019-06-26T06:58:17.743Z,26
2019-06-26T06:59:11.606Z,26
2019-06-26T07:00:12.673Z,26
2019-06-26T07:01:11.632Z,26
2019-06-26T07:02:11.751Z,26
2019-06-26T07:03:11.981Z,25.9
2019-06-26T07:04:11.793Z,26
2019-06-26T07:05:11.884Z,25.9
2019-06-26T07:06:11.965Z,25.8
2019-06-26T07:07:12.063Z,25.8
2019-06-26T07:08:12.086Z,25.9
2019-06-26T07:09:12.452Z,25.9
2019-06-26T07:10:12.321Z,26
2019-06-26T07:11:12.295Z,26.1
2019-06-26T07:12:12.365Z,26.2
2019-06-26T07:13:12.486Z,26.2
2019-06-26T07:14:12.431Z,26.2
2019-06-26T07:15:12.581Z,26.3
2019-06-26T07:16:12.605Z,26.3
2019-06-26T07:17:20.224Z,26.3
2019-06-26T07:18:12.642Z,26.3
2019-06-26T07:19:12.757Z,26.2
2019-06-26T07:20:12.898Z,26.1
2019-06-26T07:21:12.805Z,26.1
2019-06-26T07:22:12.912Z,26.2
2019-06-26T07:23:12.933Z,26.2
2019-06-26T07:24:13.279Z,26.3
2019-06-26T07:25:13.138Z,26.4
2019-06-26T07:26:13.458Z,26.5
2019-06-26T07:27:13.234Z,26.5
2019-06-26T07:28:13.302Z,26.5
2019-06-26T07:29:13.278Z,26.5
2019-06-26T07:30:14.053Z,26.7
2019-06-26T07:31:13.408Z,26.7
2019-06-26T07:32:13.696Z,26.7
2019-06-26T07:33:13.503Z,26.8
2019-06-26T07:34:13.605Z,26.7
2019-06-26T07:35:13.675Z,26.7
2019-06-26T07:36:13.751Z,26.7
2019-06-26T07:37:13.748Z,26.8
2019-06-26T07:38:13.764Z,26.8
2019-06-26T07:39:13.872Z,26.7
2019-06-26T07:40:13.885Z,26.6
2019-06-26T07:41:13.952Z,26.8
2019-06-26T07:42:14.063Z,26.8
2019-06-26T07:43:16.388Z,26.8
2019-06-26T07:44:14.130Z,26.8
2019-06-26T07:45:14.206Z,26.8
2019-06-26T07:46:14.314Z,26.9
2019-06-26T07:47:22.756Z,26.7
2019-06-26T07:48:14.457Z,26.8
2019-06-26T07:49:14.512Z,26.9
2019-06-26T07:50:14.567Z,27
2019-06-26T07:51:14.642Z,27
2019-06-26T07:52:15.735Z,27.2
2019-06-26T07:53:14.824Z,27.3
2019-06-26T07:54:14.817Z,27.2
2019-06-26T07:55:14.912Z,27
2019-06-26T07:56:14.837Z,27
2019-06-26T07:57:14.910Z,27.2
2019-06-26T07:58:15.069Z,27.3
2019-06-26T07:59:15.032Z,27.5
2019-06-26T08:00:15.080Z,40.3
2019-06-26T08:01:15.098Z,27.3
2019-06-26T08:02:15.229Z,40
2019-06-26T08:03:15.294Z,27.3
2019-06-26T08:04:15.319Z,27.4
2019-06-26T08:05:15.637Z,33.9
2019-06-26T08:06:15.452Z,27.5
2019-06-26T08:07:15.495Z,27.6
2019-06-26T08:08:15.567Z,27.8
2019-06-26T08:09:15.716Z,27.8
2019-06-26T08:10:15.688Z,27.7
2019-06-26T08:11:15.700Z,27.9
2019-06-26T08:12:15.875Z,28
2019-06-26T08:13:15.827Z,28.1
2019-06-26T08:14:15.868Z,28.1
2019-06-26T08:15:15.970Z,28
2019-06-26T08:16:16.048Z,27.9
2019-06-26T08:17:16.166Z,28
2019-06-26T08:18:16.157Z,40.8
2019-06-26T08:19:16.291Z,28.1
2019-06-26T08:20:17.382Z,28
2019-06-26T08:21:16.420Z,28.2
2019-06-26T08:22:16.459Z,28.2
2019-06-26T08:23:16.456Z,28.3
2019-06-26T08:24:16.522Z,28.2
2019-06-26T08:25:16.638Z,28.2
2019-06-26T08:26:16.660Z,28.2
2019-06-26T08:27:16.734Z,28.4
2019-06-26T08:28:16.769Z,28.5
2019-06-26T08:29:16.817Z,28.3
2019-06-26T08:30:16.930Z,28.3
2019-06-26T08:31:16.995Z,28.1
2019-06-26T08:32:17.014Z,28.3
2019-06-26T08:33:17.109Z,28.2
2019-06-26T08:34:17.100Z,28.4
2019-06-26T08:35:19.397Z,28.3
2019-06-26T08:36:17.232Z,28.4
2019-06-26T08:37:17.305Z,28.3
2019-06-26T08:38:17.346Z,28.5
2019-06-26T08:39:17.416Z,28.5
2019-06-26T08:40:17.452Z,28.5
2019-06-26T08:41:17.711Z,28.6
2019-06-26T08:42:17.571Z,28.6
2019-06-26T08:43:17.642Z,28.7
2019-06-26T08:44:17.691Z,28.8
2019-06-26T08:45:17.874Z,28.9
2019-06-26T08:46:17.840Z,28.8
2019-06-26T08:47:17.856Z,28.9
2019-06-26T08:48:28.391Z,28.9
2019-06-26T08:49:25.275Z,28.8
2019-06-26T08:50:18.412Z,41.5
2019-06-26T08:51:18.189Z,29.2
2019-06-26T08:52:19.943Z,29.1
2019-06-26T08:53:18.743Z,29.1
2019-06-26T08:54:18.267Z,29.1
2019-06-26T08:55:18.358Z,29
2019-06-26T08:56:18.450Z,29.1
2019-06-26T08:57:18.797Z,29.1
2019-06-26T08:58:18.508Z,29.1
2019-06-26T08:59:18.594Z,29.1
2019-06-26T09:00:18.627Z,29
2019-06-26T09:01:18.749Z,29
2019-06-26T09:02:18.742Z,29.2
2019-06-26T09:03:18.814Z,29.1
2019-06-26T09:04:18.864Z,29.3
2019-06-26T09:05:27.478Z,29.7
2019-06-26T09:06:18.991Z,29.7
2019-06-26T09:07:19.057Z,29.7
2019-06-26T09:08:19.187Z,29.5
2019-06-26T09:09:19.162Z,29.7
2019-06-26T09:10:19.248Z,30
2019-06-26T09:11:19.249Z,30.1
2019-06-26T09:12:19.274Z,30.1
2019-06-26T09:13:19.417Z,29.6
2019-06-26T09:14:19.505Z,29.8
2019-06-26T09:15:19.529Z,29.8
2019-06-26T09:16:19.553Z,29.9
2019-06-26T09:17:19.611Z,29.9
2019-06-26T09:18:34.242Z,29.9
2019-06-26T09:19:19.750Z,29.7
2019-06-26T09:20:19.894Z,29.7
2019-06-26T09:21:19.846Z,29.9
2019-06-26T09:22:19.933Z,30
2019-06-26T09:23:19.934Z,30.2
2019-06-26T09:24:20.140Z,30.2
2019-06-26T09:25:21.873Z,30
2019-06-26T09:26:20.173Z,30
2019-06-26T09:27:20.197Z,30.1
2019-06-26T09:28:20.258Z,30.1
2019-06-26T09:29:23.536Z,30.1
2019-06-26T09:30:20.442Z,30.2
2019-06-26T09:31:20.532Z,30.2
2019-06-26T09:32:20.488Z,30.1
2019-06-26T09:33:20.557Z,30
2019-06-26T09:34:20.596Z,30.3
2019-06-26T09:35:38.373Z,30.4
2019-06-26T09:36:20.668Z,30.2
2019-06-26T09:37:20.749Z,30.2
2019-06-26T09:38:20.847Z,30.1
2019-06-26T09:39:20.873Z,36.3
2019-06-26T09:40:20.884Z,30.4
2019-06-26T09:41:20.956Z,30.5
2019-06-26T09:42:21.007Z,30.6
2019-06-26T09:43:21.120Z,30.9
2019-06-26T09:44:21.170Z,30.9
2019-06-26T09:45:21.224Z,31
2019-06-26T09:46:21.279Z,30.9
2019-06-26T09:47:21.312Z,30.8
2019-06-26T09:48:21.386Z,30.8
2019-06-26T09:49:21.503Z,30.8
2019-06-26T09:50:21.475Z,31
2019-06-26T09:51:21.551Z,31.2
2019-06-26T09:52:21.640Z,31.3
2019-06-26T09:53:21.630Z,31
2019-06-26T09:54:21.715Z,30.9
2019-06-26T09:55:21.760Z,31
2019-06-26T09:56:21.867Z,31
2019-06-26T09:57:21.872Z,30.9
2019-06-26T09:58:21.966Z,30.9
2019-06-26T09:59:22.095Z,30.9
2019-06-26T10:00:22.209Z,31
2019-06-26T10:01:22.205Z,31.1
2019-06-26T10:02:22.229Z,30.9
2019-06-26T10:03:22.317Z,31
2019-06-26T10:04:22.413Z,30.9
2019-06-26T10:05:22.444Z,31.1
2019-06-26T10:06:22.528Z,31.1
2019-06-26T10:07:22.671Z,31.1
2019-06-26T10:08:22.563Z,30.7
2019-06-26T10:09:22.615Z,30.7
2019-06-26T10:10:22.722Z,31.1
2019-06-26T10:11:22.792Z,31.4
2019-06-26T10:12:22.785Z,31.3
2019-06-26T10:13:22.847Z,31.5
2019-06-26T10:14:22.905Z,31.6
2019-06-26T10:15:23.463Z,31.4
2019-06-26T10:16:23.192Z,31.2
2019-06-26T10:17:23.105Z,30.8
2019-06-26T10:18:23.140Z,30.6
2019-06-26T10:19:23.338Z,30.7
2019-06-26T10:20:23.281Z,30.9
2019-06-26T10:21:23.739Z,31.2
2019-06-26T10:22:23.383Z,31.4
2019-06-26T10:23:23.472Z,31.6
2019-06-26T10:24:23.586Z,31.6
2019-06-26T10:25:23.595Z,31.9
2019-06-26T10:26:23.633Z,31.9
2019-06-26T10:27:23.714Z,31.9
2019-06-26T10:28:23.767Z,31.9
2019-06-26T10:29:23.782Z,31.9
2019-06-26T10:30:23.820Z,31.5
2019-06-26T10:31:23.904Z,31.5
2019-06-26T10:32:23.945Z,31.8
2019-06-26T10:33:24.075Z,32
2019-06-26T10:34:24.061Z,32.1
2019-06-26T10:35:24.099Z,31.9
2019-06-26T10:36:24.719Z,43.5
2019-06-26T10:37:24.268Z,31.5
2019-06-26T10:38:24.299Z,31.7
2019-06-26T10:39:24.335Z,31.9
2019-06-26T10:40:24.391Z,31.8
2019-06-26T10:41:24.425Z,31.8
2019-06-26T10:42:24.513Z,31.9
2019-06-26T10:43:24.543Z,31.8
2019-06-26T10:44:24.591Z,31.9
2019-06-26T10:45:24.644Z,31.8
2019-06-26T10:46:24.719Z,31.8
2019-06-26T10:47:24.759Z,31.9
2019-06-26T10:48:30.378Z,31.8
2019-06-26T10:49:27.233Z,37.8
2019-06-26T10:50:24.992Z,32
2019-06-26T10:51:25.052Z,44
2019-06-26T10:52:25.196Z,32.5
2019-06-26T10:53:25.297Z,32.6
2019-06-26T10:54:25.217Z,32.3
2019-06-26T10:55:25.284Z,32.1
2019-06-26T10:56:28.625Z,32.4
2019-06-26T10:57:25.453Z,32.3
2019-06-26T10:58:25.595Z,32.4
2019-06-26T10:59:25.565Z,32.3
2019-06-26T11:00:25.581Z,32.3
2019-06-26T11:01:25.626Z,32.3
2019-06-26T11:02:25.722Z,32.1
2019-06-26T11:03:25.779Z,32.3
2019-06-26T11:04:25.805Z,32.3
2019-06-26T11:05:25.830Z,32.3
2019-06-26T11:06:25.900Z,32.3
2019-06-26T11:07:25.969Z,32.2
2019-06-26T11:08:26.062Z,32.3
2019-06-26T11:09:26.092Z,32.4
2019-06-26T11:10:26.207Z,32.5
2019-06-26T11:11:26.220Z,32.5
2019-06-26T11:12:26.235Z,32.7
2019-06-26T11:13:26.259Z,32.8
2019-06-26T11:14:26.373Z,32.7
2019-06-26T11:15:26.686Z,32.5
2019-06-26T11:16:26.971Z,32.7
2019-06-26T11:17:26.522Z,32.6
2019-06-26T11:18:27.466Z,32.9
2019-06-26T11:19:39.437Z,33.1
2019-06-26T11:20:27.211Z,33.1
2019-06-26T11:21:27.218Z,32.9
2019-06-26T11:22:26.920Z,32.9
2019-06-26T11:23:27.077Z,32.5
2019-06-26T11:24:27.000Z,32.5
2019-06-26T11:25:27.260Z,32.8
2019-06-26T11:26:26.977Z,32.9
2019-06-26T11:27:27.731Z,32.7
2019-06-26T11:28:27.243Z,32.6
2019-06-26T11:29:27.264Z,32.5
2019-06-26T11:30:27.444Z,32.6
2019-06-26T11:31:27.369Z,32.7
2019-06-26T11:32:27.479Z,32.5
2019-06-26T11:33:27.412Z,32.5
2019-06-26T11:34:27.979Z,32.6
2019-06-26T11:35:27.553Z,32.9
2019-06-26T11:36:27.616Z,33.1
2019-06-26T11:37:27.663Z,33
2019-06-26T11:38:28.208Z,32.9
2019-06-26T11:39:27.815Z,33
2019-06-26T11:40:28.656Z,33
2019-06-26T11:41:27.924Z,33.1
2019-06-26T11:42:27.977Z,33.1
2019-06-26T11:43:28.003Z,33.2
2019-06-26T11:44:28.070Z,33.3
2019-06-26T11:45:28.157Z,33.5
2019-06-26T11:46:28.843Z,33.5
2019-06-26T11:47:28.288Z,33.3
2019-06-26T11:48:28.673Z,33
2019-06-26T11:49:28.350Z,32.8
2019-06-26T11:50:28.590Z,61.8
2019-06-26T11:51:28.683Z,33.1
2019-06-26T11:52:29.088Z,33.3
2019-06-26T11:53:28.596Z,33.3
2019-06-26T11:54:29.215Z,33.4
2019-06-26T11:55:28.630Z,33.5
2019-06-26T11:56:28.968Z,33.5
2019-06-26T11:57:28.931Z,44.9
2019-06-26T11:58:29.367Z,33.1
2019-06-26T11:59:29.289Z,33.3
2019-06-26T12:00:30.799Z,33.4
2019-06-26T12:01:30.626Z,33.4
2019-06-26T12:02:30.319Z,33.5
2019-06-26T12:03:30.614Z,33.7
2019-06-26T12:04:30.535Z,33.8
2019-06-26T12:05:30.537Z,33.9
2019-06-26T12:06:30.832Z,33.9
2019-06-26T12:07:32.979Z,33.6
2019-06-26T12:08:30.826Z,33.4
2019-06-26T12:09:30.755Z,33
2019-06-26T12:10:31.486Z,33
2019-06-26T12:11:36.859Z,33.1
2019-06-26T12:12:31.023Z,33.3
2019-06-26T12:13:33.356Z,33.4
2019-06-26T12:14:32.356Z,33.6
2019-06-26T12:15:31.091Z,33.3
2019-06-26T12:16:31.212Z,33.3
2019-06-26T12:17:32.015Z,33.4
2019-06-26T12:18:32.962Z,33.5
2019-06-26T12:19:31.428Z,33.4
2019-06-26T12:20:31.566Z,33.5
2019-06-26T12:21:31.448Z,33.8
2019-06-26T12:22:31.498Z,34
2019-06-26T12:23:31.700Z,33.9
2019-06-26T12:24:32.099Z,33.9
2019-06-26T12:25:32.547Z,33.8
2019-06-26T12:26:31.791Z,33.9
2019-06-26T12:27:33.551Z,33.7
2019-06-26T12:28:32.039Z,39.5
2019-06-26T12:29:33.054Z,33.7
2019-06-26T12:30:32.469Z,33.9
2019-06-26T12:31:34.218Z,33.6
2019-06-26T12:32:42.005Z,33.7
2019-06-26T12:33:32.197Z,33.7
2019-06-26T12:34:32.250Z,33.7
2019-06-26T12:35:32.443Z,33.9
2019-06-26T12:36:32.339Z,33.8
2019-06-26T12:37:37.333Z,33.7
2019-06-26T12:38:32.734Z,39.2
2019-06-26T12:39:32.568Z,33.5
2019-06-26T12:40:32.579Z,33.7
2019-06-26T12:41:32.794Z,33.6
2019-06-26T12:42:32.804Z,33.6
2019-06-26T12:43:32.628Z,33.3
2019-06-26T12:44:32.765Z,33.5
2019-06-26T12:45:32.952Z,33.6
2019-06-26T12:46:33.121Z,33.6
2019-06-26T12:47:32.954Z,33.4
2019-06-26T12:48:32.994Z,33.6
2019-06-26T12:49:33.056Z,33.9
2019-06-26T12:50:35.638Z,34
2019-06-26T12:51:33.131Z,33.8
2019-06-26T12:52:33.239Z,33.8
2019-06-26T12:53:33.258Z,34
2019-06-26T12:54:33.359Z,33.9
2019-06-26T12:55:33.398Z,34
2019-06-26T12:56:33.411Z,33.7
2019-06-26T12:57:33.641Z,33.8
2019-06-26T12:58:33.755Z,33.9
2019-06-26T12:59:33.773Z,45.2
2019-06-26T13:00:34.406Z,33.7
2019-06-26T13:01:33.868Z,33.7
2019-06-26T13:02:34.415Z,33.6
2019-06-26T13:03:33.883Z,33.5
2019-06-26T13:04:33.893Z,33.5
2019-06-26T13:05:38.559Z,33.4
2019-06-26T13:06:34.036Z,33.3
2019-06-26T13:07:34.105Z,33.3
2019-06-26T13:08:34.162Z,33.6
2019-06-26T13:09:34.192Z,33.7
2019-06-26T13:10:48.330Z,33.8
2019-06-26T13:11:34.331Z,33.8
2019-06-26T13:12:39.509Z,45
2019-06-26T13:13:34.395Z,33.5
2019-06-26T13:14:37.672Z,33.9
2019-06-26T13:15:34.550Z,34
2019-06-26T13:16:34.655Z,34
2019-06-26T13:17:34.615Z,34.2
2019-06-26T13:18:35.951Z,34
2019-06-26T13:19:34.726Z,34.2
2019-06-26T13:20:48.137Z,34.4
2019-06-26T13:21:34.915Z,45.8
2019-06-26T13:22:34.981Z,34.2
2019-06-26T13:23:34.975Z,34
2019-06-26T13:24:35.048Z,33.9
2019-06-26T13:25:35.045Z,33.9
2019-06-26T13:26:40.211Z,34
2019-06-26T13:27:35.305Z,33.8